バロー の空港の天気 - METARとTAF

Barrow, Wiley Post-Will Rogers Memorial Airport ( PABR / BRW ) - アメリカ アラスカ州バロー
飛行場実況気象(Metar)
観測時間04/21 06:53 AKDT (04/21 14:53 UTC)
風向・風速北 4m/s
視程10km以上
天気現象
全天の8割程度の雲 雲底高度 270m
気温-12.2℃
湿度87%
気圧1012.4hPa
METARPABR 211453Z 01007KT 10SM BKN009 M12/M14 A2989 RMK AO2 SLP124 I3000 T11221139 51001 $
過去の天気等 Google飛行場航空写真 Wunderground天気予報

過去48時間のMETAR

飛行場予報(TAF)
発表時間: 4/21 06:53 AKDT (4/21 14:53 UTC)
予報対象時間: 21日7時 AKDT ~ 22日4時 AKDT
風向・風速北北東 3m/s
視程10km以上
全天を覆う雲 雲底高度 240m
21日10時 AKDT から
風向・風速北北東 3m/s
21日14時 AKDT から
風向・風速北東 6m/s
視程10km以上
天気現象もや
全天の4割程度の雲 雲底高度 240m
全天の8割程度の雲 雲底高度 460m
21日20時 AKDT から
風向・風速北東 8m/s
視程4830m
天気現象もや
全天の8割程度の雲 雲底高度 240m
全天を覆う雲 雲底高度 460m
PABR 211453Z 2115/2212 02005KT P6SM OVC008
FM211800 03005KT 1 1/2SM BR FEW004
FM212200 05012KT 6SM BR SCT008 BKN015
FM220400 04015KT 3SM BR BKN008 OVC015